Time;durP1;ratioP1;P1;durP2;ratioP2;P2;SDS_P1;SDS_P2;PMS_P1;PMS_P2;Temp;Humidity;BMP_temperature;BMP_pressure;BME280_temperature;BME280_humidity;BME280_pressure;Samples;Min_cycle;Max_cycle;Signal;HPM_P1;HPM_P2
2022/06/10 00:01:17;;;;;;;4.43;4.00;;;17.90;99.90;;;;;;5033277;28;20419;-55
2022/06/10 00:03:45;;;;;;;8.87;4.80;;;17.90;99.90;;;;;;5034701;28;20454;-57
2022/06/10 00:06:13;;;;;;;4.87;4.43;;;17.90;99.90;;;;;;5032378;28;20790;-54
2022/06/10 00:08:44;;;;;;;4.93;4.30;;;18.00;99.90;;;;;;5034171;28;20458;-54
2022/06/10 00:11:11;;;;;;;4.73;4.07;;;17.90;99.90;;;;;;5031655;28;20444;-53
2022/06/10 00:13:42;;;;;;;3.87;3.60;;;18.00;99.90;;;;;;5035891;28;20779;-56
2022/06/10 00:16:09;;;;;;;3.50;3.20;;;17.90;99.90;;;;;;5030976;28;20434;-58
2022/06/10 00:18:38;;;;;;;4.37;3.93;;;17.90;99.90;;;;;;5036017;28;20489;-57
2022/06/10 00:21:08;;;;;;;4.50;4.10;;;17.90;99.90;;;;;;5030987;28;20677;-56
2022/06/10 00:23:35;;;;;;;4.20;3.80;;;17.80;99.90;;;;;;5034751;28;20487;-57
2022/06/10 00:26:04;;;;;;;4.80;4.30;;;17.70;99.90;;;;;;5030094;28;20422;-56
2022/06/10 00:28:35;;;;;;;5.60;4.50;;;17.70;99.90;;;;;;5031683;28;20448;-58
2022/06/10 00:31:03;;;;;;;4.70;4.37;;;17.70;99.90;;;;;;5035671;28;20419;-56
2022/06/10 00:33:33;;;;;;;5.17;4.40;;;17.70;99.90;;;;;;5029805;28;20421;-54
2022/06/10 00:36:01;;;;;;;5.53;5.10;;;17.70;99.90;;;;;;5035580;28;20734;-57
2022/06/10 00:38:29;;;;;;;4.43;3.97;;;17.70;99.90;;;;;;5027694;28;20436;-56
2022/06/10 00:40:57;;;;;;;5.67;5.17;;;17.60;99.90;;;;;;5035962;28;20456;-57
2022/06/10 00:43:27;;;;;;;4.40;4.00;;;17.60;99.90;;;;;;5026448;28;20500;-56
2022/06/10 00:45:57;;;;;;;5.37;4.83;;;17.50;99.90;;;;;;5030701;28;20455;-54
2022/06/10 00:48:30;;;;;;;12.30;4.60;;;17.60;99.90;;;;;;5032512;28;20458;-56
2022/06/10 00:51:03;;;;;;;7.30;5.73;;;17.60;99.90;;;;;;5030470;28;20421;-54
2022/06/10 00:53:34;;;;;;;5.73;4.77;;;17.60;99.90;;;;;;5024838;28;21061;-57
2022/06/10 00:56:09;;;;;;;4.70;4.30;;;17.60;99.90;;;;;;5033085;28;20416;-53
2022/06/10 00:58:44;;;;;;;5.90;4.60;;;17.60;99.90;;;;;;5028660;28;20844;-57
2022/06/10 01:01:12;;;;;;;5.27;4.80;;;17.60;99.90;;;;;;5029853;28;20792;-55
2022/06/10 01:03:41;;;;;;;5.77;5.27;;;17.60;99.90;;;;;;5034549;28;20487;-56
2022/06/10 01:06:12;;;;;;;6.37;5.77;;;17.60;99.90;;;;;;5032982;28;20673;-55
2022/06/10 01:08:42;;;;;;;8.17;5.63;;;17.70;99.90;;;;;;5035390;28;20463;-54
2022/06/10 01:11:28;;;;;;;5.00;4.57;;;17.60;99.90;;;;;;5032369;28;20419;-52
2022/06/10 01:14:17;;;;;;;6.70;6.10;;;17.60;99.90;;;;;;5036292;28;20456;-54
2022/06/10 01:16:55;;;;;;;6.83;5.60;;;17.50;99.90;;;;;;5032065;28;20527;-56
2022/06/10 01:19:45;;;;;;;5.87;5.37;;;17.50;99.90;;;;;;5033546;28;20431;-54
2022/06/10 01:22:56;;;;;;;9.23;6.20;;;17.40;99.90;;;;;;5037279;28;20422;-55
2022/06/10 01:25:48;;;;;;;5.67;5.10;;;17.40;99.90;;;;;;5034135;28;20665;-54
2022/06/10 01:28:43;;;;;;;10.13;6.30;;;17.40;99.90;;;;;;5035495;28;20535;-55
2022/06/10 01:31:28;;;;;;;6.17;5.60;;;17.30;99.90;;;;;;5038576;28;20413;-56
2022/06/10 01:34:28;;;;;;;5.07;4.67;;;17.30;99.90;;;;;;5037432;28;20497;-58
2022/06/10 01:36:58;;;;;;;6.63;5.80;;;17.30;99.90;;;;;;5031365;28;20614;-54
2022/06/10 01:39:40;;;;;;;7.50;5.10;;;17.30;99.90;;;;;;5035558;28;20440;-55
2022/06/10 01:42:10;;;;;;;6.70;4.60;;;17.30;99.90;;;;;;5035962;28;20452;-53
2022/06/10 01:44:41;;;;;;;6.83;6.03;;;17.20;99.90;;;;;;5034616;28;20463;-58
2022/06/10 01:47:27;;;;;;;6.90;5.80;;;17.20;99.90;;;;;;5039111;28;20682;-58
2022/06/10 01:49:58;;;;;;;8.73;5.13;;;17.20;99.90;;;;;;5033379;28;20768;-54
2022/06/10 01:52:36;;;;;;;5.83;5.30;;;17.10;99.90;;;;;;5035525;28;20722;-59
2022/06/10 01:55:09;;;;;;;7.50;6.27;;;17.20;99.90;;;;;;5038840;28;20447;-58
2022/06/10 01:57:46;;;;;;;6.10;4.70;;;17.10;99.90;;;;;;5034440;28;20434;-54
2022/06/10 02:00:18;;;;;;;7.90;6.13;;;17.20;99.90;;;;;;5038247;28;20753;-57
2022/06/10 02:03:00;;;;;;;9.73;6.43;;;17.20;99.90;;;;;;5034031;28;20541;-54
2022/06/10 02:05:33;;;;;;;7.57;6.10;;;17.20;99.90;;;;;;5027391;28;20775;-55
2022/06/10 02:08:14;;;;;;;9.40;5.37;;;17.20;99.90;;;;;;5037819;28;20618;-54
2022/06/10 02:11:07;;;;;;;5.73;5.23;;;17.20;99.90;;;;;;5037042;28;20415;-53
2022/06/10 02:13:57;;;;;;;7.23;6.40;;;17.30;99.90;;;;;;5029543;28;20459;-54
2022/06/10 02:16:28;;;;;;;5.63;5.13;;;17.20;99.90;;;;;;5035780;28;20415;-56
2022/06/10 02:19:00;;;;;;;6.93;4.67;;;17.20;99.90;;;;;;5032826;28;20656;-52
2022/06/10 02:21:51;;;;;;;5.50;5.00;;;17.30;99.90;;;;;;5035102;28;20722;-54
2022/06/10 02:24:26;;;;;;;5.20;4.77;;;17.20;99.90;;;;;;5036113;28;20491;-56
2022/06/10 02:27:00;;;;;;;9.20;5.87;;;17.30;99.90;;;;;;5036500;28;20407;-54
2022/06/10 02:30:04;;;;;;;5.80;5.40;;;17.20;99.90;;;;;;5027544;28;20429;-56
2022/06/10 02:32:33;;;;;;;5.47;5.00;;;17.20;99.90;;;;;;5006741;28;20740;-57
2022/06/10 02:35:01;;;;;;;9.27;5.00;;;17.20;99.90;;;;;;5036957;28;20422;-56
2022/06/10 02:37:42;;;;;;;6.73;4.60;;;17.10;99.90;;;;;;5037390;28;20509;-58
2022/06/10 02:40:29;;;;;;;10.43;5.40;;;17.20;99.90;;;;;;5037247;28;20445;-53
2022/06/10 02:42:57;;;;;;;6.17;5.47;;;17.20;99.90;;;;;;5038176;28;20779;-58
2022/06/10 02:45:59;;;;;;;7.63;6.93;;;17.10;99.90;;;;;;5036166;28;20480;-57
2022/06/10 02:48:44;;;;;;;5.77;5.27;;;17.20;99.90;;;;;;5034336;28;20645;-53
2022/06/10 02:51:13;;;;;;;5.13;4.73;;;17.20;99.90;;;;;;5036664;28;20760;-56
2022/06/10 02:53:40;;;;;;;5.50;4.97;;;17.10;99.90;;;;;;5033714;28;20416;-53
2022/06/10 02:56:26;;;;;;;5.70;5.20;;;17.10;99.90;;;;;;5035153;28;20434;-52
2022/06/10 03:02:04;;;;;;;5.83;5.37;;;17.10;99.90;;;;;;5031345;28;20422;-55
2022/06/10 03:04:59;;;;;;;6.87;6.17;;;17.10;99.90;;;;;;5031343;28;20493;-58
2022/06/10 03:07:47;;;;;;;5.87;5.37;;;17.10;99.90;;;;;;5033632;28;20541;-55
2022/06/10 03:10:39;;;;;;;5.80;5.00;;;17.10;99.90;;;;;;5035870;28;20788;-53
2022/06/10 03:13:09;;;;;;;6.67;6.17;;;17.20;99.90;;;;;;5033025;28;20788;-54
2022/06/10 03:15:52;;;;;;;7.17;5.10;;;17.10;99.90;;;;;;5032379;28;20776;-55
2022/06/10 03:18:45;;;;;;;10.63;4.50;;;17.20;99.90;;;;;;5033662;28;20453;-55
2022/06/10 03:21:31;;;;;;;7.93;5.10;;;17.20;99.90;;;;;;4981364;28;20514;-60
2022/06/10 03:24:31;;;;;;;5.23;4.73;;;17.30;99.90;;;;;;5033465;28;20827;-54
2022/06/10 03:27:25;;;;;;;7.97;5.70;;;17.30;99.90;;;;;;5011845;28;20523;-55
2022/06/10 03:30:12;;;;;;;8.93;5.40;;;17.30;99.90;;;;;;5018088;28;20439;-53
2022/06/10 03:33:06;;;;;;;7.70;5.40;;;17.30;99.90;;;;;;5024956;28;20532;-52
2022/06/10 03:35:51;;;;;;;6.37;5.77;;;17.30;99.90;;;;;;5023525;28;20434;-56
2022/06/10 03:38:19;;;;;;;5.57;5.07;;;17.40;99.90;;;;;;5030444;28;20463;-54
2022/06/10 03:40:54;;;;;;;6.97;5.70;;;17.40;99.90;;;;;;5035727;28;20412;-53
2022/06/10 03:43:33;;;;;;;6.40;4.70;;;17.50;99.90;;;;;;5036019;28;20440;-56
2022/06/10 03:46:06;;;;;;;6.77;5.63;;;17.60;99.90;;;;;;5035818;28;20453;-55
2022/06/10 03:48:38;;;;;;;6.40;4.83;;;17.70;99.90;;;;;;5037085;28;20447;-55
2022/06/10 03:51:08;;;;;;;5.70;5.20;;;17.70;99.90;;;;;;5036969;28;20525;-54
2022/06/10 03:53:36;;;;;;;4.67;4.30;;;17.90;99.90;;;;;;5033325;28;20818;-52
2022/06/10 03:56:09;;;;;;;4.30;3.90;;;17.90;99.90;;;;;;5035835;28;20456;-57
2022/06/10 03:58:37;;;;;;;6.20;4.97;;;17.90;99.90;;;;;;5034329;28;20797;-57
2022/06/10 04:01:05;;;;;;;5.30;4.80;;;17.90;99.90;;;;;;5035083;28;20438;-55
2022/06/10 04:03:33;;;;;;;5.07;4.60;;;17.90;99.90;;;;;;5038760;28;20443;-57
2022/06/10 04:06:00;;;;;;;5.33;4.93;;;17.90;99.90;;;;;;5038943;28;20426;-56
2022/06/10 04:08:48;;;;;;;5.93;4.80;;;17.90;99.90;;;;;;5030072;28;20477;-57
2022/06/10 04:11:15;;;;;;;5.60;5.20;;;18.00;99.90;;;;;;5030637;28;20431;-55
2022/06/10 04:13:44;;;;;;;5.17;4.67;;;18.10;99.90;;;;;;5034532;28;20779;-57
2022/06/10 04:16:12;;;;;;;4.20;3.90;;;18.10;99.90;;;;;;5038979;28;20440;-54
2022/06/10 04:18:40;;;;;;;5.87;5.10;;;18.10;99.90;;;;;;5034185;28;20434;-57
2022/06/10 04:21:07;;;;;;;3.93;3.63;;;18.30;99.90;;;;;;5038915;28;20439;-55
2022/06/10 04:23:34;;;;;;;8.70;4.77;;;18.30;99.90;;;;;;5038632;28;20450;-58
2022/06/10 04:26:02;;;;;;;5.53;4.50;;;18.30;99.90;;;;;;5036309;28;20594;-56
2022/06/10 04:28:29;;;;;;;5.33;4.40;;;18.30;99.90;;;;;;5037196;28;20435;-55
2022/06/10 04:30:57;;;;;;;7.87;5.10;;;18.20;99.90;;;;;;5046478;28;20523;-55
2022/06/10 04:33:24;;;;;;;7.80;5.40;;;18.20;99.90;;;;;;5041421;28;20494;-54
2022/06/10 04:35:51;;;;;;;5.00;4.60;;;18.30;99.90;;;;;;5042699;28;20415;-54
2022/06/10 04:38:21;;;;;;;4.70;4.30;;;18.30;99.90;;;;;;5041491;28;20446;-57
2022/06/10 04:40:49;;;;;;;4.27;3.87;;;18.40;99.90;;;;;;5036418;28;20634;-55
2022/06/10 04:43:17;;;;;;;4.33;3.90;;;18.40;99.90;;;;;;5043358;28;20512;-57
2022/06/10 04:45:49;;;;;;;4.93;4.43;;;18.40;99.90;;;;;;5040592;28;20556;-59
2022/06/10 04:48:17;;;;;;;3.80;3.50;;;18.40;99.90;;;;;;5030523;28;20441;-57
2022/06/10 04:50:47;;;;;;;4.07;3.77;;;18.40;99.90;;;;;;5024212;28;20479;-55
2022/06/10 04:53:15;;;;;;;4.47;4.10;;;18.50;99.90;;;;;;5026242;28;20512;-57
2022/06/10 04:55:42;;;;;;;5.10;3.87;;;18.60;99.90;;;;;;5043610;28;20453;-55
2022/06/10 04:58:09;;;;;;;4.03;3.73;;;18.70;99.90;;;;;;5039326;28;20472;-56
2022/06/10 05:00:42;;;;;;;5.07;4.03;;;18.80;99.90;;;;;;5034094;28;20426;-53
2022/06/10 05:03:12;;;;;;;4.07;3.67;;;18.90;99.90;;;;;;5042468;28;20490;-57
2022/06/10 05:05:40;;;;;;;4.20;3.80;;;18.90;99.90;;;;;;5040733;28;20833;-53
2022/06/10 05:08:10;;;;;;;4.20;3.57;;;19.00;99.90;;;;;;5039051;28;20529;-53
2022/06/10 05:10:38;;;;;;;4.40;4.00;;;19.00;99.90;;;;;;5032672;28;20779;-53
2022/06/10 05:13:06;;;;;;;3.70;3.40;;;19.00;99.90;;;;;;5036643;28;20445;-56
2022/06/10 05:15:34;;;;;;;3.87;3.57;;;19.00;99.90;;;;;;5034746;28;20430;-56
2022/06/10 05:18:01;;;;;;;4.47;4.07;;;19.10;99.90;;;;;;5035156;28;20472;-56
2022/06/10 05:20:33;;;;;;;4.27;3.87;;;19.30;99.90;;;;;;5032833;28;20626;-56
2022/06/10 05:23:04;;;;;;;4.00;3.70;;;19.50;99.90;;;;;;5037895;28;20653;-56
2022/06/10 05:25:33;;;;;;;3.90;3.53;;;19.60;99.90;;;;;;5038178;28;20546;-57
2022/06/10 05:28:00;;;;;;;3.67;3.27;;;19.70;99.90;;;;;;5041515;28;20654;-54
2022/06/10 05:30:30;;;;;;;2.73;2.53;;;19.60;99.90;;;;;;5033225;28;20451;-57
2022/06/10 05:32:59;;;;;;;3.07;2.87;;;19.50;99.90;;;;;;5039807;28;20438;-57
2022/06/10 05:35:28;;;;;;;3.43;3.13;;;19.50;99.90;;;;;;5042431;28;20438;-55
2022/06/10 05:37:55;;;;;;;3.27;3.07;;;19.40;99.90;;;;;;5041760;28;20446;-59
2022/06/10 05:40:24;;;;;;;3.47;3.17;;;19.30;99.90;;;;;;5046770;28;20504;-54
2022/06/10 05:42:52;;;;;;;2.60;2.40;;;19.40;99.90;;;;;;5037100;28;20452;-56
2022/06/10 05:45:21;;;;;;;3.47;3.17;;;19.60;99.90;;;;;;5039837;28;20492;-55
2022/06/10 05:47:51;;;;;;;2.90;2.57;;;19.80;99.90;;;;;;5036231;28;20761;-55
2022/06/10 05:50:30;;;;;;;3.97;3.10;;;19.80;99.90;;;;;;5045655;28;20514;-57
2022/06/10 05:52:58;;;;;;;3.27;2.97;;;19.90;99.90;;;;;;5042718;28;20433;-55
2022/06/10 05:55:25;;;;;;;5.03;3.00;;;19.90;99.90;;;;;;5044384;28;20451;-60
2022/06/10 05:57:53;;;;;;;4.07;3.70;;;20.00;99.90;;;;;;5043018;28;20951;-55
2022/06/10 06:00:24;;;;;;;2.73;2.53;;;20.20;99.90;;;;;;5049578;28;20418;-57
2022/06/10 06:02:52;;;;;;;3.00;2.80;;;20.20;99.90;;;;;;5037378;28;20477;-56
2022/06/10 06:05:21;;;;;;;2.87;2.60;;;20.00;99.90;;;;;;5045441;28;20821;-56
2022/06/10 06:07:50;;;;;;;3.23;2.97;;;19.90;99.90;;;;;;5043264;28;20432;-53
2022/06/10 06:10:21;;;;;;;2.63;2.43;;;20.00;99.90;;;;;;5056499;23;20577;-45
2022/06/10 06:12:49;;;;;;;2.83;2.63;;;20.20;99.90;;;;;;5038362;28;20513;-44
2022/06/10 06:15:17;;;;;;;3.10;2.83;;;20.70;99.90;;;;;;5044144;28;20418;-46
2022/06/10 06:17:47;;;;;;;3.57;3.00;;;20.80;99.90;;;;;;5044406;28;20540;-48
2022/06/10 06:20:16;;;;;;;2.93;2.73;;;20.70;99.90;;;;;;5045624;28;20440;-50
2022/06/10 06:22:43;;;;;;;4.50;3.37;;;20.90;99.90;;;;;;5042795;28;20451;-47
2022/06/10 06:25:13;;;;;;;2.70;2.50;;;20.90;99.90;;;;;;5036326;28;20511;-51
2022/06/10 06:27:42;;;;;;;4.40;3.07;;;21.00;99.90;;;;;;5044483;28;20425;-49
2022/06/10 06:30:36;;;;;;;3.83;2.70;;;21.00;99.90;;;;;;5044369;28;20747;-43
2022/06/10 06:33:07;;;;;;;3.00;2.70;;;21.40;99.90;;;;;;5041442;28;20736;-49
2022/06/10 06:35:37;;;;;;;3.67;3.37;;;21.30;99.90;;;;;;5030521;28;20476;-51
2022/06/10 06:38:05;;;;;;;4.50;3.50;;;21.10;99.90;;;;;;5044559;28;20462;-47
2022/06/10 06:40:33;;;;;;;2.70;2.50;;;21.50;99.90;;;;;;5045785;28;20441;-52
2022/06/10 06:43:01;;;;;;;3.13;2.73;;;22.20;99.90;;;;;;5042400;28;20450;-46
2022/06/10 06:45:29;;;;;;;3.47;2.57;;;22.50;99.90;;;;;;5039583;28;20479;-46
2022/06/10 06:48:08;;;;;;;4.07;3.07;;;23.00;99.90;;;;;;5038427;28;20631;-46
2022/06/10 06:50:41;;;;;;;2.67;2.43;;;23.30;99.90;;;;;;5035403;28;20460;-46
2022/06/10 06:53:08;;;;;;;3.73;2.70;;;23.30;99.90;;;;;;5046231;28;20757;-42
2022/06/10 06:55:38;;;;;;;3.00;2.80;;;23.40;99.90;;;;;;5042554;28;20519;-49
2022/06/10 06:58:09;;;;;;;3.07;2.77;;;23.40;99.90;;;;;;5044172;28;20673;-46
2022/06/10 07:00:36;;;;;;;2.50;2.33;;;23.20;99.90;;;;;;5043024;28;20830;-49
2022/06/10 07:03:04;;;;;;;5.43;3.43;;;23.10;99.90;;;;;;5044947;28;20934;-48
2022/06/10 07:05:32;;;;;;;4.30;3.40;;;22.70;99.90;;;;;;5045553;28;20512;-46
2022/06/10 07:08:00;;;;;;;5.40;3.57;;;22.70;99.90;;;;;;5045578;28;20440;-45
2022/06/10 07:10:28;;;;;;;4.43;3.73;;;22.80;99.90;;;;;;5046744;28;20475;-45
2022/06/10 07:12:55;;;;;;;3.10;2.87;;;23.20;99.90;;;;;;5038974;28;20441;-49
2022/06/10 07:15:22;;;;;;;3.00;2.57;;;23.10;99.90;;;;;;5045615;28;20419;-46
2022/06/10 07:17:50;;;;;;;2.63;2.43;;;23.80;99.90;;;;;;5045478;28;20412;-47
2022/06/10 07:20:30;;;;;;;3.90;2.97;;;24.30;99.90;;;;;;5046185;28;20447;-52
2022/06/10 07:22:59;;;;;;;2.60;2.40;;;25.00;99.90;;;;;;5041448;28;20437;-50
2022/06/10 07:25:28;;;;;;;2.60;2.37;;;26.00;99.90;;;;;;5038256;28;20521;-46
2022/06/10 07:27:56;;;;;;;2.70;2.50;;;27.20;99.90;;;;;;5044615;28;20664;-48
2022/06/10 07:30:27;;;;;;;3.63;3.30;;;27.10;99.90;;;;;;5047562;28;20641;-50
2022/06/10 07:32:54;;;;;;;2.53;2.33;;;26.70;99.90;;;;;;5045471;28;20654;-48
2022/06/10 07:35:22;;;;;;;2.47;2.27;;;27.00;99.90;;;;;;5040780;28;20524;-49
2022/06/10 07:37:50;;;;;;;3.93;3.30;;;28.50;99.90;;;;;;5044276;28;20521;-48
2022/06/10 07:43:32;;;;;;;2.83;2.63;;;32.00;99.60;;;;;;5042320;28;20425;-48
2022/06/10 07:46:00;;;;;;;2.80;2.60;;;30.50;99.90;;;;;;5041065;28;20503;-50
2022/06/10 07:48:28;;;;;;;2.73;2.53;;;30.00;99.90;;;;;;5040498;28;20489;-47
2022/06/10 07:50:55;;;;;;;4.40;1.63;;;30.40;99.60;;;;;;5036529;28;20698;-48
2022/06/10 07:53:22;;;;;;;2.57;2.37;;;30.90;98.20;;;;;;5044839;28;20728;-47
2022/06/10 07:55:50;;;;;;;2.30;2.10;;;31.70;96.40;;;;;;5044099;28;20934;-49
2022/06/10 07:58:18;;;;;;;4.43;1.70;;;30.80;95.20;;;;;;5045030;28;20676;-50
2022/06/10 08:00:46;;;;;;;1.40;1.30;;;29.50;95.10;;;;;;5040663;28;20457;-46
2022/06/10 08:03:14;;;;;;;2.20;2.00;;;28.10;97.00;;;;;;5044498;28;20458;-49
2022/06/10 08:05:42;;;;;;;1.60;1.50;;;27.00;99.90;;;;;;5043304;28;20488;-46
2022/06/10 08:08:17;;;;;;;2.40;2.20;;;26.40;99.90;;;;;;5045292;28;20507;-44
2022/06/10 08:10:45;;;;;;;1.87;1.77;;;26.10;99.90;;;;;;5044319;28;20474;-45
2022/06/10 08:13:13;;;;;;;2.07;1.97;;;25.40;99.90;;;;;;5038710;28;20442;-43
2022/06/10 08:15:43;;;;;;;2.23;1.70;;;25.20;99.90;;;;;;5043506;28;20541;-49
2022/06/10 08:18:15;;;;;;;2.37;2.27;;;25.90;99.90;;;;;;5045755;28;20473;-49
2022/06/10 08:23:31;;;;;;;1.87;1.77;;;26.70;99.90;;;;;;5038347;28;20438;-51
2022/06/10 08:26:01;;;;;;;6.63;2.03;;;26.40;99.90;;;;;;5036092;28;20456;-50
2022/06/10 08:28:28;;;;;;;2.00;1.90;;;26.30;99.90;;;;;;5030715;28;20771;-44
2022/06/10 08:30:56;;;;;;;2.23;2.00;;;27.20;99.90;;;;;;5046856;28;20458;-50
2022/06/10 08:33:23;;;;;;;2.10;1.90;;;29.20;99.90;;;;;;5040332;28;20440;-51
2022/06/10 08:35:51;;;;;;;2.20;2.00;;;31.40;96.50;;;;;;5037958;28;20438;-48
2022/06/10 08:38:19;;;;;;;2.27;2.07;;;33.50;91.60;;;;;;5044383;28;20460;-48
2022/06/10 08:41:15;;;;;;;1.77;1.67;;;35.50;83.10;;;;;;5047171;28;20593;-47
2022/06/10 08:44:04;;;;;;;1.63;1.53;;;35.30;75.70;;;;;;5035168;28;20444;-47
2022/06/10 08:46:50;;;;;;;2.00;1.70;;;34.50;74.00;;;;;;5036826;28;20483;-52
2022/06/10 08:49:51;;;;;;;2.13;2.00;;;34.50;73.60;;;;;;5039426;28;20524;-49
2022/06/10 08:52:35;;;;;;;2.53;2.27;;;33.80;72.80;;;;;;5038231;28;20739;-47
2022/06/10 08:55:12;;;;;;;3.43;2.80;;;32.50;77.40;;;;;;5046368;28;20452;-48
2022/06/10 08:57:45;;;;;;;2.30;2.10;;;30.20;83.90;;;;;;5036293;28;20717;-44
2022/06/10 09:00:36;;;;;;;2.30;2.10;;;29.70;87.10;;;;;;5040870;28;20449;-47
2022/06/10 09:03:10;;;;;;;2.20;2.10;;;30.70;85.50;;;;;;5040517;28;20459;-49
2022/06/10 09:05:59;;;;;;;3.23;2.70;;;31.30;82.70;;;;;;5038974;28;20459;-46
2022/06/10 09:08:37;;;;;;;3.67;3.37;;;29.40;85.40;;;;;;5046516;28;20675;-45
2022/06/10 09:11:35;;;;;;;2.00;1.80;;;28.10;89.50;;;;;;5040732;28;20457;-50
2022/06/10 09:14:05;;;;;;;4.83;2.30;;;27.70;90.80;;;;;;5033639;28;20444;-43
2022/06/10 09:17:06;;;;;;;3.43;2.60;;;28.10;90.70;;;;;;5032077;28;20439;-46
2022/06/10 09:19:42;;;;;;;2.70;2.30;;;28.00;90.80;;;;;;5042557;28;20535;-45
2022/06/10 09:22:35;;;;;;;3.20;2.53;;;28.20;91.30;;;;;;5041735;28;20675;-45
2022/06/10 09:25:24;;;;;;;2.43;2.23;;;28.50;90.70;;;;;;5031628;28;20453;-50
2022/06/10 09:27:56;;;;;;;2.37;2.17;;;29.10;90.40;;;;;;5040083;28;20421;-45
2022/06/10 09:30:33;;;;;;;2.90;2.70;;;29.20;90.20;;;;;;5045656;28;20461;-48
2022/06/10 09:33:14;;;;;;;2.50;2.33;;;29.60;89.20;;;;;;5042666;28;20441;-46
2022/06/10 09:35:57;;;;;;;4.43;2.80;;;29.30;91.60;;;;;;5030837;28;20454;-46
2022/06/10 09:38:47;;;;;;;2.63;2.43;;;28.20;92.40;;;;;;5037518;28;20508;-47
2022/06/10 09:41:20;;;;;;;2.33;2.20;;;27.40;93.30;;;;;;5044926;28;20468;-47
2022/06/10 09:44:00;;;;;;;4.00;2.77;;;27.00;94.80;;;;;;5042498;28;20812;-44
2022/06/10 09:46:48;;;;;;;2.33;2.20;;;26.40;95.40;;;;;;5035676;28;20804;-48
2022/06/10 09:49:53;;;;;;;3.57;2.47;;;26.20;95.30;;;;;;5042406;28;20472;-46
2022/06/10 09:52:41;;;;;;;5.57;3.20;;;26.10;96.20;;;;;;5041245;28;20437;-46
2022/06/10 09:55:40;;;;;;;2.50;2.30;;;26.10;95.50;;;;;;5050185;28;20618;-48
2022/06/10 09:58:44;;;;;;;3.10;2.37;;;25.50;97.80;;;;;;5044001;28;20442;-44
2022/06/10 10:01:27;;;;;;;2.40;2.20;;;25.70;97.70;;;;;;5029405;28;20444;-47
2022/06/10 10:04:18;;;;;;;2.67;2.47;;;25.40;97.50;;;;;;5043356;28;20473;-48
2022/06/10 10:06:54;;;;;;;2.33;2.10;;;25.20;97.40;;;;;;5038250;28;20541;-46
2022/06/10 10:09:50;;;;;;;2.37;2.10;;;25.00;97.10;;;;;;5050107;28;20443;-45
2022/06/10 10:12:31;;;;;;;3.80;2.07;;;25.00;97.10;;;;;;5048063;28;20404;-42
2022/06/10 10:15:19;;;;;;;7.33;3.00;;;24.80;98.40;;;;;;5049072;28;20480;-46
2022/06/10 10:18:20;;;;;;;1.80;1.63;;;24.20;99.90;;;;;;5045079;28;20443;-47
2022/06/10 10:21:13;;;;;;;2.10;1.90;;;24.40;99.90;;;;;;5037338;28;20495;-44
2022/06/10 10:23:50;;;;;;;2.33;2.17;;;24.50;99.90;;;;;;5035113;28;20426;-44
2022/06/10 10:26:27;;;;;;;1.90;1.80;;;24.60;99.90;;;;;;5039886;28;21073;-45
2022/06/10 10:29:22;;;;;;;2.63;2.43;;;24.70;99.90;;;;;;5049319;28;20436;-49
2022/06/10 10:32:00;;;;;;;2.40;2.20;;;24.60;99.90;;;;;;5039805;28;20441;-49
2022/06/10 10:34:34;;;;;;;2.17;2.07;;;24.50;99.90;;;;;;5035288;28;20414;-50
2022/06/10 10:37:04;;;;;;;1.97;1.87;;;24.20;99.90;;;;;;5037305;28;20611;-45
2022/06/10 10:39:38;;;;;;;2.70;1.97;;;24.10;99.90;;;;;;5044247;28;20824;-51
2022/06/10 10:42:16;;;;;;;2.30;2.10;;;24.20;99.90;;;;;;5045655;28;20469;-44
2022/06/10 10:44:47;;;;;;;5.30;2.97;;;24.60;99.90;;;;;;5044956;28;20406;-47
2022/06/10 10:47:18;;;;;;;2.20;2.07;;;24.60;99.90;;;;;;5039584;28;20841;-44
2022/06/10 10:49:49;;;;;;;2.03;1.93;;;25.00;99.90;;;;;;5040243;28;20441;-44
2022/06/10 10:52:25;;;;;;;4.33;2.00;;;25.00;99.90;;;;;;5039790;28;20741;-46
2022/06/10 10:54:59;;;;;;;2.63;2.43;;;25.20;99.90;;;;;;5048092;28;20448;-45
2022/06/10 10:57:33;;;;;;;2.80;2.47;;;25.10;99.90;;;;;;5044155;28;20819;-45
2022/06/10 11:00:07;;;;;;;2.43;2.23;;;24.90;99.90;;;;;;5041807;28;20509;-49
2022/06/10 11:02:41;;;;;;;2.13;1.70;;;24.50;99.90;;;;;;5035947;28;20862;-49
2022/06/10 11:05:37;;;;;;;2.40;2.20;;;24.10;99.90;;;;;;5045908;28;20453;-48
2022/06/10 11:08:10;;;;;;;2.40;1.80;;;24.10;99.90;;;;;;5041647;28;20668;-49
2022/06/10 11:11:00;;;;;;;1.77;1.63;;;24.30;99.90;;;;;;5045601;28;20695;-45
2022/06/10 11:13:36;;;;;;;2.80;2.60;;;24.70;99.90;;;;;;5037541;28;20478;-47
2022/06/10 11:16:26;;;;;;;1.90;1.77;;;24.80;99.90;;;;;;5044808;28;20795;-47
2022/06/10 11:19:16;;;;;;;6.20;1.80;;;24.90;99.90;;;;;;5049170;28;20559;-47
2022/06/10 11:22:02;;;;;;;1.50;1.40;;;25.40;99.90;;;;;;5036545;28;20445;-46
2022/06/10 11:24:40;;;;;;;4.60;2.07;;;25.50;99.20;;;;;;5037638;28;20480;-51
2022/06/10 11:27:19;;;;;;;2.50;1.87;;;25.40;98.80;;;;;;5044626;28;20835;-52
2022/06/10 11:30:11;;;;;;;1.60;1.50;;;25.20;99.20;;;;;;5042995;28;20511;-48
2022/06/10 11:33:03;;;;;;;1.83;1.50;;;25.30;98.60;;;;;;5035064;28;20436;-48
2022/06/10 11:35:34;;;;;;;1.50;1.30;;;25.30;98.00;;;;;;5038479;28;20644;-46
2022/06/10 11:38:02;;;;;;;1.03;1.00;;;25.20;96.00;;;;;;5041072;28;20757;-45
2022/06/10 11:40:50;;;;;;;1.83;1.37;;;25.20;95.90;;;;;;5028863;28;20443;-48
2022/06/10 11:43:25;;;;;;;1.50;1.40;;;25.00;94.70;;;;;;5036331;28;20842;-44
2022/06/10 11:46:05;;;;;;;1.23;1.20;;;24.80;95.60;;;;;;5035856;28;20885;-49
2022/06/10 11:48:41;;;;;;;1.20;1.10;;;24.60;96.10;;;;;;5035211;28;20435;-49
2022/06/10 11:51:20;;;;;;;2.00;1.10;;;24.70;96.60;;;;;;5035709;28;20449;-46
2022/06/10 11:53:53;;;;;;;1.00;1.00;;;25.00;95.50;;;;;;5035831;28;20516;-47
2022/06/10 12:02:12;;;;;;;4.50;1.20;;;24.80;93.40;;;;;;5035205;28;20420;-47
2022/06/10 12:04:45;;;;;;;1.80;1.27;;;24.80;94.50;;;;;;5029767;28;20448;-47
2022/06/10 12:07:18;;;;;;;3.27;1.50;;;24.90;95.20;;;;;;5022662;28;20673;-51
2022/06/10 12:09:56;;;;;;;1.47;1.37;;;25.10;95.00;;;;;;5021056;28;20456;-47
2022/06/10 12:12:29;;;;;;;1.20;1.10;;;24.90;93.60;;;;;;5023413;28;20753;-45
2022/06/10 12:15:00;;;;;;;0.87;0.87;;;24.80;94.10;;;;;;5020289;28;20446;-48
2022/06/10 12:17:39;;;;;;;1.40;1.33;;;24.80;94.80;;;;;;5020223;28;20621;-50
2022/06/10 12:20:20;;;;;;;2.40;1.13;;;24.80;95.50;;;;;;5020365;28;20583;-50
2022/06/10 12:22:48;;;;;;;2.10;1.50;;;24.90;95.70;;;;;;5028756;28;20453;-43
2022/06/10 12:25:17;;;;;;;1.43;1.33;;;24.80;92.20;;;;;;5031814;28;20863;-47
2022/06/10 12:27:52;;;;;;;1.33;1.00;;;25.00;95.00;;;;;;5023058;28;20516;-48
2022/06/10 12:30:34;;;;;;;1.70;1.20;;;25.10;93.60;;;;;;5029603;28;20468;-48
2022/06/10 12:33:17;;;;;;;1.30;1.20;;;25.00;94.00;;;;;;5023463;28;20618;-48
2022/06/10 12:35:45;;;;;;;2.20;1.83;;;25.30;94.90;;;;;;5023541;28;20631;-46
2022/06/10 12:38:19;;;;;;;4.00;1.80;;;25.40;93.80;;;;;;5025822;28;20540;-49
2022/06/10 12:41:10;;;;;;;1.27;1.17;;;25.00;93.20;;;;;;5033104;28;20481;-48
2022/06/10 12:43:42;;;;;;;2.60;1.80;;;25.20;93.70;;;;;;5039937;28;20439;-49
2022/06/10 12:46:28;;;;;;;1.37;1.03;;;25.00;93.20;;;;;;5028794;28;20460;-46
2022/06/10 12:48:55;;;;;;;2.10;1.33;;;24.80;94.30;;;;;;5033233;28;20819;-50
2022/06/10 12:51:40;;;;;;;0.70;0.70;;;24.80;94.40;;;;;;5035083;28;20464;-46
2022/06/10 12:54:52;;;;;;;1.13;0.90;;;24.80;94.10;;;;;;5034721;28;20433;-47
2022/06/10 12:57:22;;;;;;;2.80;1.20;;;25.20;93.90;;;;;;5033055;28;20450;-48
2022/06/10 12:59:49;;;;;;;1.77;1.50;;;25.50;93.10;;;;;;5034971;28;20499;-47
2022/06/10 13:02:50;;;;;;;1.33;1.23;;;25.20;92.70;;;;;;5036143;28;20448;-48
2022/06/10 13:05:27;;;;;;;1.20;1.10;;;25.00;92.40;;;;;;5035361;28;20480;-45
2022/06/10 13:07:55;;;;;;;1.37;1.27;;;25.00;92.90;;;;;;5023781;28;20549;-44
2022/06/10 13:10:45;;;;;;;1.83;1.30;;;25.10;92.60;;;;;;5018857;28;20449;-46
2022/06/10 13:13:23;;;;;;;1.90;1.00;;;25.10;91.60;;;;;;5021652;28;21532;-47
2022/06/10 13:16:15;;;;;;;1.57;1.37;;;25.10;91.70;;;;;;5019056;28;20448;-46
2022/06/10 13:18:58;;;;;;;1.40;1.30;;;25.20;91.50;;;;;;5028517;28;20446;-50
2022/06/10 13:21:32;;;;;;;1.20;1.10;;;25.30;91.10;;;;;;5037387;28;20453;-46
2022/06/10 13:24:00;;;;;;;1.83;0.90;;;25.10;91.00;;;;;;5029715;28;20593;-46
2022/06/10 13:26:32;;;;;;;1.23;1.13;;;25.20;91.10;;;;;;5033920;28;20538;-47
2022/06/10 13:29:06;;;;;;;5.33;0.90;;;25.30;91.10;;;;;;5031002;28;20468;-51
2022/06/10 13:31:33;;;;;;;1.47;1.37;;;25.40;91.70;;;;;;5032430;28;20438;-50
2022/06/10 13:34:04;;;;;;;1.50;1.07;;;25.30;90.50;;;;;;5030834;28;20413;-47
2022/06/10 13:36:37;;;;;;;1.07;1.03;;;25.10;90.90;;;;;;5034475;28;20743;-51
2022/06/10 13:39:31;;;;;;;5.27;1.43;;;24.90;90.60;;;;;;5029831;28;20529;-51
2022/06/10 13:41:59;;;;;;;1.37;0.90;;;24.80;90.10;;;;;;5035864;28;20617;-45
2022/06/10 13:44:43;;;;;;;0.90;0.90;;;24.70;90.00;;;;;;5029734;28;20449;-49